Carrboro, North Carolina
Current Conditions -  °F | °C
As of 2:56 PM on Tuesday 21 Oct 2014 (Local Time) from KIGX Reporting Station
Scattered Clouds Scattered Clouds  
Wind Chill: 70°   Ceiling: Unl
Heat Index: 70°   Visibility: 10mi
Dew Point: 46°   Wind: 7mph
Humidity: 42%   Direction: NA
Pressure: 29.85"   Gusts: NA
Location:  35.91°N, 79.08°W
Report Text: KIGX 211856Z AUTO VRB06KT 10SM SCT060 21/08 A2985 RMK AO2 SLP102 T02110078
Loading
Personal Weather Stations






























Interactive Weather Map New forecast layout! Learn more

10-Day Weather Forecast

Advertisements
Track Severe Weather on mobile